sensor_id;sensor_type;location;lat;lon;timestamp;pressure;altitude;pressure_sealevel;temperature;humidity
44441;BME280;30146;52.268;20.944;2023-03-16T00:01:30;100533.75;;;2.45;57.29
44441;BME280;30146;52.268;20.944;2023-03-16T00:04:01;100534.29;;;2.40;57.55
44441;BME280;30146;52.268;20.944;2023-03-16T00:06:32;100533.35;;;2.36;57.43
44441;BME280;30146;52.268;20.944;2023-03-16T00:09:05;100535.94;;;2.32;57.65
44441;BME280;30146;52.268;20.944;2023-03-16T00:11:38;100533.63;;;2.28;57.63
44441;BME280;30146;52.268;20.944;2023-03-16T00:14:09;100535.23;;;2.24;57.80
44441;BME280;30146;52.268;20.944;2023-03-16T00:16:40;100544.92;;;2.21;57.80
44441;BME280;30146;52.268;20.944;2023-03-16T00:19:11;100545.32;;;2.18;57.80
44441;BME280;30146;52.268;20.944;2023-03-16T00:21:41;100544.91;;;2.16;57.90
44441;BME280;30146;52.268;20.944;2023-03-16T00:24:12;100547.50;;;2.11;57.72
44441;BME280;30146;52.268;20.944;2023-03-16T00:26:46;100549.95;;;2.08;57.80
44441;BME280;30146;52.268;20.944;2023-03-16T00:29:17;100555.61;;;2.05;57.73
44441;BME280;30146;52.268;20.944;2023-03-16T00:31:49;100555.38;;;2.03;57.85
44441;BME280;30146;52.268;20.944;2023-03-16T00:34:20;100565.81;;;2.03;58.14
44441;BME280;30146;52.268;20.944;2023-03-16T00:36:51;100565.71;;;1.99;58.01
44441;BME280;30146;52.268;20.944;2023-03-16T00:39:23;100562.45;;;1.97;57.94
44441;BME280;30146;52.268;20.944;2023-03-16T00:41:54;100567.97;;;1.96;57.72
44441;BME280;30146;52.268;20.944;2023-03-16T00:44:27;100568.08;;;1.93;58.06
44441;BME280;30146;52.268;20.944;2023-03-16T00:46:57;100568.49;;;1.91;58.05
44441;BME280;30146;52.268;20.944;2023-03-16T00:49:28;100570.14;;;1.89;58.07
44441;BME280;30146;52.268;20.944;2023-03-16T00:52:04;100571.73;;;1.86;57.97
44441;BME280;30146;52.268;20.944;2023-03-16T00:54:36;100568.29;;;1.84;57.85
44441;BME280;30146;52.268;20.944;2023-03-16T00:57:07;100566.15;;;1.80;57.85
44441;BME280;30146;52.268;20.944;2023-03-16T00:59:39;100568.89;;;1.76;57.88
44441;BME280;30146;52.268;20.944;2023-03-16T01:02:11;100568.31;;;1.72;57.95
44441;BME280;30146;52.268;20.944;2023-03-16T01:04:42;100570.91;;;1.69;58.08
44441;BME280;30146;52.268;20.944;2023-03-16T01:07:14;100570.17;;;1.68;58.10
44441;BME280;30146;52.268;20.944;2023-03-16T01:09:45;100572.27;;;1.65;58.03
44441;BME280;30146;52.268;20.944;2023-03-16T01:12:17;100572.20;;;1.62;58.28
44441;BME280;30146;52.268;20.944;2023-03-16T01:14:49;100574.81;;;1.60;58.32
44441;BME280;30146;52.268;20.944;2023-03-16T01:17:20;100574.96;;;1.59;58.43
44441;BME280;30146;52.268;20.944;2023-03-16T01:19:52;100578.13;;;1.58;58.22
44441;BME280;30146;52.268;20.944;2023-03-16T01:22:23;100583.95;;;1.56;58.26
44441;BME280;30146;52.268;20.944;2023-03-16T01:24:54;100580.53;;;1.53;58.22
44441;BME280;30146;52.268;20.944;2023-03-16T01:27:25;100584.84;;;1.51;58.48
44441;BME280;30146;52.268;20.944;2023-03-16T01:29:56;100586.61;;;1.49;58.45
44441;BME280;30146;52.268;20.944;2023-03-16T01:32:27;100587.86;;;1.45;58.29
44441;BME280;30146;52.268;20.944;2023-03-16T01:34:58;100586.58;;;1.43;58.44
44441;BME280;30146;52.268;20.944;2023-03-16T01:37:29;100591.84;;;1.38;58.32
44441;BME280;30146;52.268;20.944;2023-03-16T01:40:04;100593.22;;;1.34;58.50
44441;BME280;30146;52.268;20.944;2023-03-16T01:42:45;100594.59;;;1.29;58.49
44441;BME280;30146;52.268;20.944;2023-03-16T01:48:24;100596.49;;;1.20;58.63
44441;BME280;30146;52.268;20.944;2023-03-16T01:50:57;100599.59;;;1.17;58.68
44441;BME280;30146;52.268;20.944;2023-03-16T01:53:28;100602.31;;;1.13;58.80
44441;BME280;30146;52.268;20.944;2023-03-16T01:56:03;100603.57;;;1.10;58.87
44441;BME280;30146;52.268;20.944;2023-03-16T01:58:37;100602.48;;;1.08;58.97
44441;BME280;30146;52.268;20.944;2023-03-16T02:01:11;100599.70;;;1.05;58.96
44441;BME280;30146;52.268;20.944;2023-03-16T02:03:44;100600.48;;;1.04;59.20
44441;BME280;30146;52.268;20.944;2023-03-16T02:06:20;100600.80;;;1.03;59.21
44441;BME280;30146;52.268;20.944;2023-03-16T02:08:57;100599.21;;;1.01;59.13
44441;BME280;30146;52.268;20.944;2023-03-16T02:11:28;100598.48;;;0.99;59.12
44441;BME280;30146;52.268;20.944;2023-03-16T02:14:10;100595.53;;;0.96;59.19
44441;BME280;30146;52.268;20.944;2023-03-16T02:16:42;100599.36;;;0.95;59.26
44441;BME280;30146;52.268;20.944;2023-03-16T02:19:18;100600.63;;;0.92;59.28
44441;BME280;30146;52.268;20.944;2023-03-16T02:21:56;100605.32;;;0.92;59.33
44441;BME280;30146;52.268;20.944;2023-03-16T02:24:28;100604.80;;;0.92;59.46
44441;BME280;30146;52.268;20.944;2023-03-16T02:27:03;100605.36;;;0.93;59.49
44441;BME280;30146;52.268;20.944;2023-03-16T02:30:02;100607.32;;;0.91;59.39
44441;BME280;30146;52.268;20.944;2023-03-16T02:32:40;100607.86;;;0.92;59.50
44441;BME280;30146;52.268;20.944;2023-03-16T02:35:12;100611.23;;;0.92;59.60
44441;BME280;30146;52.268;20.944;2023-03-16T02:37:44;100610.27;;;0.93;59.64
44441;BME280;30146;52.268;20.944;2023-03-16T02:40:21;100613.42;;;0.92;59.57
44441;BME280;30146;52.268;20.944;2023-03-16T02:42:57;100616.23;;;0.91;59.50
44441;BME280;30146;52.268;20.944;2023-03-16T02:45:35;100620.70;;;0.89;59.59
44441;BME280;30146;52.268;20.944;2023-03-16T02:48:11;100624.83;;;0.87;59.55
44441;BME280;30146;52.268;20.944;2023-03-16T02:50:46;100623.40;;;0.84;59.63
44441;BME280;30146;52.268;20.944;2023-03-16T02:53:18;100629.58;;;0.83;59.61
44441;BME280;30146;52.268;20.944;2023-03-16T02:55:49;100634.88;;;0.81;59.63
44441;BME280;30146;52.268;20.944;2023-03-16T02:58:21;100637.06;;;0.80;59.77
44441;BME280;30146;52.268;20.944;2023-03-16T03:00:52;100640.68;;;0.78;59.76
44441;BME280;30146;52.268;20.944;2023-03-16T03:03:23;100640.98;;;0.77;59.87
44441;BME280;30146;52.268;20.944;2023-03-16T03:05:54;100644.29;;;0.75;60.07
44441;BME280;30146;52.268;20.944;2023-03-16T03:08:26;100646.92;;;0.73;60.14
44441;BME280;30146;52.268;20.944;2023-03-16T03:10:57;100648.73;;;0.72;60.21
44441;BME280;30146;52.268;20.944;2023-03-16T03:13:28;100649.36;;;0.71;60.37
44441;BME280;30146;52.268;20.944;2023-03-16T03:16:00;100650.30;;;0.69;60.38
44441;BME280;30146;52.268;20.944;2023-03-16T03:18:31;100650.33;;;0.70;60.54
44441;BME280;30146;52.268;20.944;2023-03-16T03:21:03;100650.70;;;0.71;60.71
44441;BME280;30146;52.268;20.944;2023-03-16T03:23:35;100653.98;;;0.73;60.68
44441;BME280;30146;52.268;20.944;2023-03-16T03:26:09;100656.40;;;0.75;60.87
44441;BME280;30146;52.268;20.944;2023-03-16T03:28:40;100659.77;;;0.75;60.91
44441;BME280;30146;52.268;20.944;2023-03-16T03:31:19;100667.17;;;0.75;60.79
44441;BME280;30146;52.268;20.944;2023-03-16T03:33:50;100669.34;;;0.74;60.83
44441;BME280;30146;52.268;20.944;2023-03-16T03:36:23;100671.82;;;0.73;60.69
44441;BME280;30146;52.268;20.944;2023-03-16T03:38:54;100673.56;;;0.70;60.71
44441;BME280;30146;52.268;20.944;2023-03-16T03:41:25;100679.87;;;0.68;60.77
44441;BME280;30146;52.268;20.944;2023-03-16T03:43:56;100675.75;;;0.66;60.73
44441;BME280;30146;52.268;20.944;2023-03-16T03:46:27;100682.91;;;0.63;60.73
44441;BME280;30146;52.268;20.944;2023-03-16T03:48:58;100683.44;;;0.60;60.65
44441;BME280;30146;52.268;20.944;2023-03-16T03:51:34;100685.17;;;0.56;60.70
44441;BME280;30146;52.268;20.944;2023-03-16T03:54:09;100681.21;;;0.54;60.72
44441;BME280;30146;52.268;20.944;2023-03-16T03:56:47;100686.88;;;0.52;60.87
44441;BME280;30146;52.268;20.944;2023-03-16T03:59:18;100689.47;;;0.49;60.81
44441;BME280;30146;52.268;20.944;2023-03-16T04:02:08;100695.09;;;0.47;61.08
44441;BME280;30146;52.268;20.944;2023-03-16T04:04:43;100697.05;;;0.46;61.11
44441;BME280;30146;52.268;20.944;2023-03-16T04:07:14;100700.09;;;0.46;61.05
44441;BME280;30146;52.268;20.944;2023-03-16T04:09:46;100699.41;;;0.45;61.20
44441;BME280;30146;52.268;20.944;2023-03-16T04:12:25;100702.84;;;0.47;61.37
44441;BME280;30146;52.268;20.944;2023-03-16T04:14:57;100700.02;;;0.49;61.32
44441;BME280;30146;52.268;20.944;2023-03-16T04:17:31;100703.12;;;0.50;61.46
44441;BME280;30146;52.268;20.944;2023-03-16T04:20:06;100708.34;;;0.50;61.41
44441;BME280;30146;52.268;20.944;2023-03-16T04:22:44;100706.79;;;0.49;61.38
44441;BME280;30146;52.268;20.944;2023-03-16T04:25:16;100709.22;;;0.47;61.40
44441;BME280;30146;52.268;20.944;2023-03-16T04:27:48;100708.00;;;0.46;61.35
44441;BME280;30146;52.268;20.944;2023-03-16T04:30:21;100709.66;;;0.45;61.53
44441;BME280;30146;52.268;20.944;2023-03-16T04:32:55;100707.63;;;0.45;61.56
44441;BME280;30146;52.268;20.944;2023-03-16T04:35:26;100710.73;;;0.43;61.47
44441;BME280;30146;52.268;20.944;2023-03-16T04:37:58;100708.80;;;0.41;61.58
44441;BME280;30146;52.268;20.944;2023-03-16T04:40:39;100711.95;;;0.39;61.69
44441;BME280;30146;52.268;20.944;2023-03-16T04:43:16;100714.70;;;0.36;61.84
44441;BME280;30146;52.268;20.944;2023-03-16T04:45:48;100718.86;;;0.35;61.63
44441;BME280;30146;52.268;20.944;2023-03-16T04:48:19;100717.91;;;0.32;61.99
44441;BME280;30146;52.268;20.944;2023-03-16T04:50:50;100721.27;;;0.32;61.92
44441;BME280;30146;52.268;20.944;2023-03-16T04:53:21;100726.02;;;0.33;61.99
44441;BME280;30146;52.268;20.944;2023-03-16T04:55:57;100727.91;;;0.34;62.05
44441;BME280;30146;52.268;20.944;2023-03-16T04:58:28;100727.38;;;0.38;62.10
44441;BME280;30146;52.268;20.944;2023-03-16T05:01:00;100734.07;;;0.42;62.20
44441;BME280;30146;52.268;20.944;2023-03-16T05:03:32;100737.70;;;0.44;62.17
44441;BME280;30146;52.268;20.944;2023-03-16T05:06:05;100741.91;;;0.49;62.15
44441;BME280;30146;52.268;20.944;2023-03-16T05:08:37;100740.71;;;0.52;62.43
44441;BME280;30146;52.268;20.944;2023-03-16T05:11:09;100742.52;;;0.56;62.23
44441;BME280;30146;52.268;20.944;2023-03-16T05:13:48;100742.97;;;0.59;62.11
44441;BME280;30146;52.268;20.944;2023-03-16T05:16:20;100744.02;;;0.65;62.41
44441;BME280;30146;52.268;20.944;2023-03-16T05:18:51;100747.95;;;0.75;62.76
44441;BME280;30146;52.268;20.944;2023-03-16T05:21:26;100747.20;;;1.11;63.76
44441;BME280;30146;52.268;20.944;2023-03-16T05:24:04;100747.79;;;1.63;64.61
44441;BME280;30146;52.268;20.944;2023-03-16T05:26:38;100750.91;;;2.18;65.00
44441;BME280;30146;52.268;20.944;2023-03-16T05:29:12;100751.77;;;2.75;64.99
44441;BME280;30146;52.268;20.944;2023-03-16T05:31:43;100746.94;;;3.26;64.34
44441;BME280;30146;52.268;20.944;2023-03-16T05:34:17;100747.21;;;3.77;63.67
44441;BME280;30146;52.268;20.944;2023-03-16T05:36:50;100749.23;;;4.26;63.29
44441;BME280;30146;52.268;20.944;2023-03-16T05:39:23;100753.22;;;4.77;62.10
44441;BME280;30146;52.268;20.944;2023-03-16T05:41:54;100752.57;;;5.31;61.86
44441;BME280;30146;52.268;20.944;2023-03-16T05:44:30;100750.36;;;5.88;61.38
44441;BME280;30146;52.268;20.944;2023-03-16T05:47:16;100752.73;;;6.55;61.23
44441;BME280;30146;52.268;20.944;2023-03-16T05:50:04;100745.36;;;7.20;60.64
44441;BME280;30146;52.268;20.944;2023-03-16T05:52:39;100746.98;;;7.85;60.09
44441;BME280;30146;52.268;20.944;2023-03-16T05:55:17;100748.11;;;8.48;59.50
44441;BME280;30146;52.268;20.944;2023-03-16T05:57:53;100749.92;;;9.05;58.84
44441;BME280;30146;52.268;20.944;2023-03-16T06:00:34;100745.93;;;9.53;58.19
44441;BME280;30146;52.268;20.944;2023-03-16T06:03:18;100754.15;;;10.09;57.13
44441;BME280;30146;52.268;20.944;2023-03-16T06:05:49;100752.23;;;10.52;56.02
44441;BME280;30146;52.268;20.944;2023-03-16T06:08:25;100752.77;;;10.94;54.96
44441;BME280;30146;52.268;20.944;2023-03-16T06:10:59;100752.88;;;11.38;53.82
44441;BME280;30146;52.268;20.944;2023-03-16T06:13:33;100754.62;;;11.83;52.93
44441;BME280;30146;52.268;20.944;2023-03-16T06:16:05;100749.70;;;12.37;52.18
44441;BME280;30146;52.268;20.944;2023-03-16T06:18:37;100754.98;;;12.99;51.73
44441;BME280;30146;52.268;20.944;2023-03-16T06:21:10;100751.38;;;13.72;51.57
44441;BME280;30146;52.268;20.944;2023-03-16T06:23:42;100755.64;;;14.45;51.26
44441;BME280;30146;52.268;20.944;2023-03-16T06:26:13;100753.21;;;15.15;50.89
44441;BME280;30146;52.268;20.944;2023-03-16T06:28:45;100755.02;;;15.87;50.77
44441;BME280;30146;52.268;20.944;2023-03-16T06:31:16;100754.95;;;16.50;50.09
44441;BME280;30146;52.268;20.944;2023-03-16T06:33:47;100755.28;;;17.00;48.79
44441;BME280;30146;52.268;20.944;2023-03-16T06:36:19;100758.89;;;17.30;47.34
44441;BME280;30146;52.268;20.944;2023-03-16T06:38:54;100758.03;;;17.57;46.52
44441;BME280;30146;52.268;20.944;2023-03-16T06:41:45;100754.14;;;17.87;45.60
44441;BME280;30146;52.268;20.944;2023-03-16T06:44:17;100759.68;;;18.18;44.70
44441;BME280;30146;52.268;20.944;2023-03-16T06:46:58;100759.42;;;18.55;44.08
44441;BME280;30146;52.268;20.944;2023-03-16T06:49:30;100761.41;;;18.91;42.99
44441;BME280;30146;52.268;20.944;2023-03-16T06:52:01;100760.90;;;19.14;41.84
44441;BME280;30146;52.268;20.944;2023-03-16T06:54:33;100764.05;;;19.44;41.15
44441;BME280;30146;52.268;20.944;2023-03-16T06:57:06;100765.45;;;19.66;40.22
44441;BME280;30146;52.268;20.944;2023-03-16T06:59:38;100769.52;;;19.99;40.21
44441;BME280;30146;52.268;20.944;2023-03-16T07:02:12;100771.57;;;20.44;40.02
44441;BME280;30146;52.268;20.944;2023-03-16T07:04:48;100777.57;;;20.90;39.54
44441;BME280;30146;52.268;20.944;2023-03-16T07:07:36;100775.70;;;21.34;38.99
44441;BME280;30146;52.268;20.944;2023-03-16T07:10:10;100783.13;;;21.89;39.15
44441;BME280;30146;52.268;20.944;2023-03-16T07:12:41;100782.77;;;22.55;39.35
44441;BME280;30146;52.268;20.944;2023-03-16T07:15:13;100790.42;;;23.11;38.54
44441;BME280;30146;52.268;20.944;2023-03-16T07:17:52;100786.45;;;23.55;38.03
44441;BME280;30146;52.268;20.944;2023-03-16T07:20:23;100785.97;;;24.09;38.21
44441;BME280;30146;52.268;20.944;2023-03-16T07:22:56;100790.42;;;24.66;37.72
44441;BME280;30146;52.268;20.944;2023-03-16T07:25:27;100789.79;;;25.16;37.00
44441;BME280;30146;52.268;20.944;2023-03-16T07:27:59;100785.23;;;25.60;36.49
44441;BME280;30146;52.268;20.944;2023-03-16T07:30:34;100781.69;;;25.95;35.34
44441;BME280;30146;52.268;20.944;2023-03-16T07:33:06;100786.59;;;26.08;34.03
44441;BME280;30146;52.268;20.944;2023-03-16T07:35:37;100788.77;;;26.21;33.61
44441;BME280;30146;52.268;20.944;2023-03-16T07:38:13;100787.21;;;26.41;33.40
44441;BME280;30146;52.268;20.944;2023-03-16T07:40:44;100786.61;;;26.63;33.05
44441;BME280;30146;52.268;20.944;2023-03-16T07:43:20;100790.96;;;26.93;32.93
44441;BME280;30146;52.268;20.944;2023-03-16T07:45:53;100791.26;;;27.18;32.52
44441;BME280;30146;52.268;20.944;2023-03-16T07:48:26;100793.86;;;27.38;32.34
44441;BME280;30146;52.268;20.944;2023-03-16T07:51:01;100787.20;;;27.48;31.60
44441;BME280;30146;52.268;20.944;2023-03-16T07:53:32;100793.34;;;27.51;31.15
44441;BME280;30146;52.268;20.944;2023-03-16T07:56:30;100794.77;;;27.57;30.76
44441;BME280;30146;52.268;20.944;2023-03-16T07:59:24;100793.80;;;27.63;30.52
44441;BME280;30146;52.268;20.944;2023-03-16T08:01:55;100796.73;;;27.61;29.96
44441;BME280;30146;52.268;20.944;2023-03-16T08:04:26;100798.39;;;27.66;29.90
44441;BME280;30146;52.268;20.944;2023-03-16T08:06:59;100793.70;;;27.67;29.44
44441;BME280;30146;52.268;20.944;2023-03-16T08:09:42;100790.23;;;27.59;28.94
44441;BME280;30146;52.268;20.944;2023-03-16T08:12:16;100785.85;;;27.52;28.79
44441;BME280;30146;52.268;20.944;2023-03-16T08:14:48;100789.80;;;27.53;28.63
44441;BME280;30146;52.268;20.944;2023-03-16T08:17:24;100789.67;;;27.52;28.52
44441;BME280;30146;52.268;20.944;2023-03-16T08:19:56;100792.30;;;27.55;28.10
44441;BME280;30146;52.268;20.944;2023-03-16T08:22:27;100796.24;;;27.59;27.95
44441;BME280;30146;52.268;20.944;2023-03-16T08:24:58;100794.16;;;27.58;27.61
44441;BME280;30146;52.268;20.944;2023-03-16T08:27:29;100800.92;;;27.64;27.72
44441;BME280;30146;52.268;20.944;2023-03-16T08:30:04;100797.90;;;27.67;27.39
44441;BME280;30146;52.268;20.944;2023-03-16T08:32:41;100799.13;;;27.74;27.24
44441;BME280;30146;52.268;20.944;2023-03-16T08:35:28;100796.83;;;27.82;26.87
44441;BME280;30146;52.268;20.944;2023-03-16T08:38:23;100794.71;;;27.79;26.48
44441;BME280;30146;52.268;20.944;2023-03-16T08:40:52;100801.90;;;27.84;26.44
44441;BME280;30146;52.268;20.944;2023-03-16T08:43:23;100804.38;;;27.79;26.27
44441;BME280;30146;52.268;20.944;2023-03-16T08:45:55;100807.67;;;27.70;25.91
44441;BME280;30146;52.268;20.944;2023-03-16T08:48:29;100810.13;;;27.68;26.18
44441;BME280;30146;52.268;20.944;2023-03-16T08:51:04;100813.95;;;27.74;26.37
44441;BME280;30146;52.268;20.944;2023-03-16T08:53:52;100810.10;;;27.68;26.30
44441;BME280;30146;52.268;20.944;2023-03-16T08:56:23;100816.52;;;27.45;25.97
44441;BME280;30146;52.268;20.944;2023-03-16T08:58:54;100817.95;;;27.03;26.44
44441;BME280;30146;52.268;20.944;2023-03-16T09:01:26;100818.45;;;26.56;26.81
44441;BME280;30146;52.268;20.944;2023-03-16T09:04:00;100822.85;;;26.04;26.97
44441;BME280;30146;52.268;20.944;2023-03-16T09:06:32;100824.75;;;25.47;26.97
44441;BME280;30146;52.268;20.944;2023-03-16T09:09:03;100826.52;;;24.79;26.61
44441;BME280;30146;52.268;20.944;2023-03-16T09:11:34;100828.76;;;24.15;27.16
44441;BME280;30146;52.268;20.944;2023-03-16T09:14:05;100829.94;;;23.67;27.69
44441;BME280;30146;52.268;20.944;2023-03-16T09:16:37;100830.16;;;23.31;28.05
44441;BME280;30146;52.268;20.944;2023-03-16T09:19:09;100831.54;;;22.96;28.09
44441;BME280;30146;52.268;20.944;2023-03-16T09:21:41;100828.60;;;22.41;27.84
44441;BME280;30146;52.268;20.944;2023-03-16T09:24:12;100828.62;;;21.88;28.15
44441;BME280;30146;52.268;20.944;2023-03-16T09:26:42;100831.45;;;21.51;28.92
44441;BME280;30146;52.268;20.944;2023-03-16T09:29:14;100829.31;;;21.21;29.18
44441;BME280;30146;52.268;20.944;2023-03-16T09:31:48;100829.52;;;20.94;29.23
44441;BME280;30146;52.268;20.944;2023-03-16T09:34:19;100830.57;;;20.45;28.89
44441;BME280;30146;52.268;20.944;2023-03-16T09:36:56;100832.69;;;19.81;29.24
44441;BME280;30146;52.268;20.944;2023-03-16T09:39:27;100833.77;;;19.30;29.52
44441;BME280;30146;52.268;20.944;2023-03-16T09:42:03;100828.81;;;19.05;30.38
44441;BME280;30146;52.268;20.944;2023-03-16T09:44:46;100826.18;;;18.97;30.89
44441;BME280;30146;52.268;20.944;2023-03-16T09:47:26;100826.94;;;18.90;31.10
44441;BME280;30146;52.268;20.944;2023-03-16T09:50:02;100827.65;;;18.80;30.89
44441;BME280;30146;52.268;20.944;2023-03-16T09:52:39;100826.92;;;18.61;30.68
44441;BME280;30146;52.268;20.944;2023-03-16T09:55:21;100823.97;;;18.46;30.96
44441;BME280;30146;52.268;20.944;2023-03-16T09:57:58;100830.77;;;18.29;31.08
44441;BME280;30146;52.268;20.944;2023-03-16T10:00:35;100830.00;;;18.06;31.03
44441;BME280;30146;52.268;20.944;2023-03-16T10:03:33;100831.18;;;17.84;31.30
44441;BME280;30146;52.268;20.944;2023-03-16T10:06:10;100837.41;;;17.67;31.40
44441;BME280;30146;52.268;20.944;2023-03-16T10:08:44;100835.27;;;17.47;31.35
44441;BME280;30146;52.268;20.944;2023-03-16T10:11:29;100837.55;;;17.22;31.48
44441;BME280;30146;52.268;20.944;2023-03-16T10:14:07;100840.21;;;16.89;31.40
44441;BME280;30146;52.268;20.944;2023-03-16T10:16:48;100833.26;;;16.77;31.73
44441;BME280;30146;52.268;20.944;2023-03-16T10:19:28;100829.75;;;16.73;31.89
44441;BME280;30146;52.268;20.944;2023-03-16T10:22:07;100839.45;;;16.58;31.51
44441;BME280;30146;52.268;20.944;2023-03-16T10:24:46;100837.92;;;16.38;31.73
44441;BME280;30146;52.268;20.944;2023-03-16T10:27:27;100840.88;;;16.16;31.84
44441;BME280;30146;52.268;20.944;2023-03-16T10:29:59;100842.02;;;15.90;31.87
44441;BME280;30146;52.268;20.944;2023-03-16T10:32:34;100847.67;;;15.59;31.90
44441;BME280;30146;52.268;20.944;2023-03-16T10:35:13;100844.20;;;15.20;31.85
44441;BME280;30146;52.268;20.944;2023-03-16T10:37:53;100843.83;;;14.78;31.96
44441;BME280;30146;52.268;20.944;2023-03-16T10:40:26;100837.96;;;14.49;32.53
44441;BME280;30146;52.268;20.944;2023-03-16T10:43:10;100848.83;;;14.27;33.08
44441;BME280;30146;52.268;20.944;2023-03-16T10:45:44;100850.08;;;14.13;33.45
44441;BME280;30146;52.268;20.944;2023-03-16T10:48:17;100847.19;;;14.11;33.68
44441;BME280;30146;52.268;20.944;2023-03-16T10:50:53;100844.20;;;14.16;34.14
44441;BME280;30146;52.268;20.944;2023-03-16T10:53:27;100851.74;;;14.27;34.24
44441;BME280;30146;52.268;20.944;2023-03-16T10:56:09;100851.64;;;14.33;34.27
44441;BME280;30146;52.268;20.944;2023-03-16T10:58:43;100845.36;;;14.49;34.35
44441;BME280;30146;52.268;20.944;2023-03-16T11:01:19;100845.92;;;14.56;34.36
44441;BME280;30146;52.268;20.944;2023-03-16T11:03:53;100848.86;;;14.54;34.17
44441;BME280;30146;52.268;20.944;2023-03-16T11:06:28;100843.64;;;14.48;33.90
44441;BME280;30146;52.268;20.944;2023-03-16T11:09:06;100841.97;;;14.36;33.38
44441;BME280;30146;52.268;20.944;2023-03-16T11:11:48;100840.92;;;14.16;33.28
44441;BME280;30146;52.268;20.944;2023-03-16T11:14:23;100840.05;;;13.95;33.54
44441;BME280;30146;52.268;20.944;2023-03-16T11:17:01;100839.78;;;13.78;33.88
44441;BME280;30146;52.268;20.944;2023-03-16T11:19:36;100840.22;;;13.59;34.14
44441;BME280;30146;52.268;20.944;2023-03-16T11:22:14;100841.52;;;13.40;34.19
44441;BME280;30146;52.268;20.944;2023-03-16T11:24:51;100844.14;;;13.20;33.99
44441;BME280;30146;52.268;20.944;2023-03-16T11:27:29;100847.88;;;12.95;34.00
44441;BME280;30146;52.268;20.944;2023-03-16T11:30:08;100849.00;;;12.69;34.12
44441;BME280;30146;52.268;20.944;2023-03-16T11:32:47;100851.30;;;12.43;34.59
44441;BME280;30146;52.268;20.944;2023-03-16T11:35:21;100852.05;;;12.15;34.95
44441;BME280;30146;52.268;20.944;2023-03-16T11:38:07;100857.39;;;11.84;35.16
44441;BME280;30146;52.268;20.944;2023-03-16T11:40:49;100859.77;;;11.54;35.77
44441;BME280;30146;52.268;20.944;2023-03-16T11:43:40;100857.32;;;11.27;35.94
44441;BME280;30146;52.268;20.944;2023-03-16T11:46:16;100858.10;;;11.06;36.47
44441;BME280;30146;52.268;20.944;2023-03-16T11:48:55;100860.18;;;10.92;37.04
44441;BME280;30146;52.268;20.944;2023-03-16T11:51:37;100859.19;;;10.78;37.08
44441;BME280;30146;52.268;20.944;2023-03-16T11:54:34;100863.32;;;10.61;37.31
44441;BME280;30146;52.268;20.944;2023-03-16T11:57:32;100864.88;;;10.46;37.49
44441;BME280;30146;52.268;20.944;2023-03-16T12:00:21;100866.08;;;10.33;37.72
44441;BME280;30146;52.268;20.944;2023-03-16T12:03:10;100863.81;;;10.26;37.76
44441;BME280;30146;52.268;20.944;2023-03-16T12:05:55;100862.79;;;10.15;38.04
44441;BME280;30146;52.268;20.944;2023-03-16T12:08:42;100865.69;;;10.08;37.94
44441;BME280;30146;52.268;20.944;2023-03-16T12:11:23;100864.83;;;9.98;37.94
44441;BME280;30146;52.268;20.944;2023-03-16T12:14:11;100864.13;;;9.88;37.96
44441;BME280;30146;52.268;20.944;2023-03-16T12:16:47;100863.42;;;9.78;38.30
44441;BME280;30146;52.268;20.944;2023-03-16T12:19:25;100869.05;;;9.73;38.48
44441;BME280;30146;52.268;20.944;2023-03-16T12:22:11;100870.74;;;9.68;38.65
44441;BME280;30146;52.268;20.944;2023-03-16T12:24:46;100870.73;;;9.62;38.79
44441;BME280;30146;52.268;20.944;2023-03-16T12:27:21;100870.20;;;9.56;38.92
44441;BME280;30146;52.268;20.944;2023-03-16T12:30:03;100869.14;;;9.49;39.27
44441;BME280;30146;52.268;20.944;2023-03-16T12:32:44;100872.36;;;9.43;39.24
44441;BME280;30146;52.268;20.944;2023-03-16T12:35:32;100871.15;;;9.37;39.44
44441;BME280;30146;52.268;20.944;2023-03-16T12:38:21;100877.44;;;9.30;39.53
44441;BME280;30146;52.268;20.944;2023-03-16T12:41:03;100876.38;;;9.24;39.67
44441;BME280;30146;52.268;20.944;2023-03-16T12:46:35;100880.63;;;9.20;40.10
44441;BME280;30146;52.268;20.944;2023-03-16T12:49:09;100884.02;;;9.16;40.32
44441;BME280;30146;52.268;20.944;2023-03-16T12:51:42;100881.79;;;9.13;40.36
44441;BME280;30146;52.268;20.944;2023-03-16T12:54:25;100884.69;;;9.13;40.56
44441;BME280;30146;52.268;20.944;2023-03-16T12:57:02;100881.26;;;9.10;40.62
44441;BME280;30146;52.268;20.944;2023-03-16T12:59:39;100881.59;;;9.08;40.70
44441;BME280;30146;52.268;20.944;2023-03-16T13:02:15;100884.82;;;9.06;40.68
44441;BME280;30146;52.268;20.944;2023-03-16T13:04:53;100883.79;;;9.03;40.54
44441;BME280;30146;52.268;20.944;2023-03-16T13:07:29;100887.19;;;9.01;40.74
44441;BME280;30146;52.268;20.944;2023-03-16T13:10:05;100887.19;;;9.02;40.93
44441;BME280;30146;52.268;20.944;2023-03-16T13:12:39;100890.79;;;9.03;41.06
44441;BME280;30146;52.268;20.944;2023-03-16T13:15:27;100885.33;;;9.04;40.85
44441;BME280;30146;52.268;20.944;2023-03-16T13:18:18;100882.42;;;9.06;41.13
44441;BME280;30146;52.268;20.944;2023-03-16T13:20:54;100882.97;;;9.09;41.20
44441;BME280;30146;52.268;20.944;2023-03-16T13:23:26;100881.94;;;9.10;41.35
44441;BME280;30146;52.268;20.944;2023-03-16T13:26:09;100886.23;;;9.12;41.16
44441;BME280;30146;52.268;20.944;2023-03-16T13:28:44;100883.33;;;9.13;40.90
44441;BME280;30146;52.268;20.944;2023-03-16T13:31:26;100883.33;;;9.11;40.91
44441;BME280;30146;52.268;20.944;2023-03-16T13:33:58;100883.33;;;9.13;40.85